»·PEaware :: N15JG KGEG-KGEG

N15JG :: KGEG-KGEG

FLIGHT INFORMATION

Flight Status: Arrived
Operator: Privately registered:
United States
More flights under this callsign
Pilot: Anonymous 11047 (11047)
Aircraft: PIPER PA-32 SARATOGA
(PA32)
More flights by this aircraft type
Origin: KGEG Spokane Intl
United States
Destination: KGEG Spokane Intl
United States
More flights between these airports :: More routes between these airports
Route: +
File this flight plan on PilotEdge
Remarks:
Altitude:
(Current/Filed)
6,500ft
Speed:
(Current/Filed)
0kts
Departed: 25-Mar-17 01:25 PM
Arrived: 25-Mar-17 02:07 PM
Distance/Time
Traveled:
0nm/0:41
Distance/Time
To Go:
Arrived

Flight Plot

Page will automatically refresh every two minutes.

Flight plan parsing failed; only flown route is shown


Map Options




Map Legend


Flown Route
Filed Route
Departure Airport
Arrival Airport
Navaid (VOR, NDB)
Fix

Horizontal Profiles

Position Reports

Time Latitude Longitude Heading Altitude Ground
Speed
25-Mar-17 13:25 46.077590 -116.376159 307 6529ft 138kts
25-Mar-17 13:26 46.101099 -116.420171 303 6593ft 151kts
25-Mar-17 13:27 46.132457 -116.475615 305 6839ft 156kts
25-Mar-17 13:28 46.156433 -116.515933 305 6958ft 158kts
25-Mar-17 13:29 46.181032 -116.557978 305 7060ft 161kts
25-Mar-17 13:30 46.204173 -116.594059 317 7570ft 144kts
25-Mar-17 13:31 46.230989 -116.631039 317 6824ft 173kts
25-Mar-17 13:32 46.262511 -116.676969 321 6195ft 141kts
25-Mar-17 13:33 46.293003 -116.711328 314 7195ft 148kts
25-Mar-17 13:34 46.315457 -116.765289 288 9114ft 140kts
25-Mar-17 13:35 46.342137 -116.805245 318 9559ft 183kts
25-Mar-17 13:36 46.384111 -116.863335 309 10528ft 185kts
25-Mar-17 13:37 46.413428 -116.905371 312 10545ft 174kts
25-Mar-17 13:38 46.449665 -116.949679 314 10621ft 169kts
25-Mar-17 13:39 46.485708 -116.992311 321 10656ft 172kts
25-Mar-17 13:40 46.523476 -117.033004 310 10624ft 174kts
25-Mar-17 13:41 46.549471 -117.092006 285 9753ft 195kts
25-Mar-17 13:42 46.584672 -117.155425 332 6704ft 212kts
25-Mar-17 13:43 46.641109 -117.188457 320 6249ft 180kts
25-Mar-17 13:44 46.674020 -117.223698 315 6091ft 174kts
25-Mar-17 13:45 46.710807 -117.264823 328 6177ft 164kts
25-Mar-17 13:46 46.760798 -117.298940 326 5465ft 192kts
25-Mar-17 13:47 46.800795 -117.322165 342 5233ft 181kts
25-Mar-17 13:48 46.850189 -117.340368 344 4757ft 187kts
25-Mar-17 13:49 46.896967 -117.352600 350 4985ft 162kts
25-Mar-17 13:50 46.942597 -117.357809 349 5015ft 159kts
25-Mar-17 13:51 46.988513 -117.385609 327 5096ft 157kts
25-Mar-17 13:52 47.022625 -117.407320 336 5180ft 162kts
25-Mar-17 13:53 47.067878 -117.420552 344 5124ft 172kts
25-Mar-17 13:54 47.111918 -117.431910 342 5179ft 169kts
25-Mar-17 13:55 47.156103 -117.450507 337 5200ft 170kts
25-Mar-17 13:56 47.200692 -117.476979 329 4907ft 175kts
25-Mar-17 13:57 47.244174 -117.506137 339 4762ft 174kts
25-Mar-17 13:58 47.292902 -117.509412 348 4717ft 175kts
25-Mar-17 13:59 47.339633 -117.520213 340 4793ft 166kts
25-Mar-17 14:00 47.384462 -117.536822 345 4819ft 167kts
25-Mar-17 14:01 47.429597 -117.548481 342 4807ft 171kts
25-Mar-17 14:02 47.474785 -117.565911 348 4814ft 172kts
25-Mar-17 14:03 47.521782 -117.572684 337 4520ft 171kts
25-Mar-17 14:04 47.571838 -117.564649 26 4166ft 166kts
25-Mar-17 14:05 47.603948 -117.536060 35 3370ft 157kts
25-Mar-17 14:06 47.631660 -117.497530 46 3052ft 140kts
25-Mar-17 14:07 47.635596 -117.512223 225 2586ft 116kts
25-Mar-17 14:08 47.622758 -117.530995 214 2355ft 17kts
25-Mar-17 14:09 47.620780 -117.531985 132 2359ft 0kts
25-Mar-17 14:10 47.621296 -117.529129 133 2358ft 14kts
25-Mar-17 14:11 47.620614 -117.527863 161 2359ft 0kts
25-Mar-17 14:12 47.620614 -117.527863 161 2359ft 0kts
25-Mar-17 14:13 47.620614 -117.527863 161 2359ft 0kts
25-Mar-17 14:14 47.620614 -117.527863 161 2359ft 0kts
25-Mar-17 14:15 47.620614 -117.527863 161 2359ft 0kts

Navigation Log

Ident Type
Flight plan parsing failed, navigation log unavailable